Susquehanna — WDD9976 — position and weather

sailwx.info

Track history (hours):
 
Tides and Currents Weather Stations Pressure Air Temp Water Temp Dewpoint Dewpoint Depression Visibility Wind Speed Wind Dir Waves Ship Positions

Susquehanna

Owner: Vane Line Bunkering, Inc., Baltimore, MD. More information available from US FCC via Universal Licensing System and Coast Guard Vessel Documentation Center.

Last reported at 2014-Oct-28 13:26 UTC. Time now 2014-Nov-01 00:20 UTC.
Position N 39°50' W 075°22'.

Length 28 m; draft 4.2 m.

Type: Tug. MMSI: 367318750.

Date/timePositionNaut miles runAvg speedWind from/ knotsBaromVisibWave heightAir tempDewpointWater temp
2014-Oct-28 13:26N 39°50' W 075°22'2 0.1
2014-Oct-28 02:34N 39°49' W 075°24'1 0.2
2014-Oct-27 21:17N 39°49' W 075°23'0 0.1
2014-Oct-27 19:27N 39°49' W 075°23'0 0.0
2014-Oct-27 17:25N 39°49' W 075°23'4 0.9
2014-Oct-27 13:14N 39°51' W 075°19'0 0.0
2014-Oct-27 12:32N 39°51' W 075°19'1 0.2
2014-Oct-27 03:28N 39°51' W 075°18'  
2014-Oct-20 15:23N 39°49' W 075°24'1 1.1
2014-Oct-20 14:31N 39°49' W 075°23'0 0.0
2014-Oct-20 13:32N 39°49' W 075°23'0 0.0
2014-Oct-20 12:27N 39°49' W 075°23'0 0.0
2014-Oct-20 11:33N 39°49' W 075°23'0 0.0
2014-Oct-20 03:30N 39°49' W 075°23'0 0.0
2014-Oct-20 02:33N 39°49' W 075°23'0 0.0
2014-Oct-20 01:31N 39°49' W 075°23'0 0.0
2014-Oct-20 00:29N 39°49' W 075°23'0 0.0
2014-Oct-19 23:18N 39°49' W 075°23'0 0.0
2014-Oct-18 21:14N 39°49' W 075°23'0 0.0
2014-Oct-18 14:33N 39°49' W 075°23'  
Track history (hours):
 
Tides and Currents Weather Stations Pressure Air Temp Water Temp Dewpoint Dewpoint Depression Visibility Wind Speed Wind Dir Waves Ship Positions

Susquehanna

Owner: Vane Line Bunkering, Inc., Baltimore, MD. More information available from US FCC via Universal Licensing System and Coast Guard Vessel Documentation Center.

Last reported at 2014-Oct-28 13:26 UTC. Time now 2014-Nov-01 00:20 UTC.
Position N 39°50' W 075°22'.

Length 28 m; draft 4.2 m.

Type: Tug. MMSI: 367318750.

Date/timePositionNaut miles runAvg speedWind from/ knotsBaromVisibWave heightAir tempDewpointWater temp
2014-Oct-28 13:26N 39°50' W 075°22'2 0.1
2014-Oct-28 02:34N 39°49' W 075°24'1 0.2
2014-Oct-27 21:17N 39°49' W 075°23'0 0.1
2014-Oct-27 19:27N 39°49' W 075°23'0 0.0
2014-Oct-27 17:25N 39°49' W 075°23'4 0.9
2014-Oct-27 13:14N 39°51' W 075°19'0 0.0
2014-Oct-27 12:32N 39°51' W 075°19'1 0.2
2014-Oct-27 03:28N 39°51' W 075°18'  
2014-Oct-20 15:23N 39°49' W 075°24'1 1.1
2014-Oct-20 14:31N 39°49' W 075°23'0 0.0
2014-Oct-20 13:32N 39°49' W 075°23'0 0.0
2014-Oct-20 12:27N 39°49' W 075°23'0 0.0
2014-Oct-20 11:33N 39°49' W 075°23'0 0.0
2014-Oct-20 03:30N 39°49' W 075°23'0 0.0
2014-Oct-20 02:33N 39°49' W 075°23'0 0.0
2014-Oct-20 01:31N 39°49' W 075°23'0 0.0
2014-Oct-20 00:29N 39°49' W 075°23'0 0.0
2014-Oct-19 23:18N 39°49' W 075°23'0 0.0
2014-Oct-18 21:14N 39°49' W 075°23'0 0.0
2014-Oct-18 14:33N 39°49' W 075°23'  

Dump ship's entire track history